Time;durP1;ratioP1;P1;durP2;ratioP2;P2;SDS_P1;SDS_P2;PMS_P1;PMS_P2;Temp;Humidity;BMP_temperature;BMP_pressure;BME280_temperature;BME280_humidity;BME280_pressure;Samples;Min_cycle;Max_cycle;Signal;HPM_P1;HPM_P2
2020/12/27 00:01:20;;;;;;;4.57;1.73;;;;;;;18.25;73.34;101602.06;5018691;28;20026;-74
2020/12/27 00:03:46;;;;;;;1.80;1.48;;;;;;;18.27;73.88;101600.28;5030725;28;20045;-74
2020/12/27 00:06:11;;;;;;;10.25;1.52;;;;;;;18.23;74.04;101603.88;5029562;28;20038;-74
2020/12/27 00:08:36;;;;;;;5.80;1.25;;;;;;;18.20;74.04;101602.97;5020443;28;20041;-74
2020/12/27 00:11:01;;;;;;;3.80;1.67;;;;;;;18.18;74.00;101597.63;5018300;28;20044;-74
2020/12/27 00:13:27;;;;;;;3.83;1.73;;;;;;;18.18;73.78;101594.97;5018253;28;20045;-74
2020/12/27 00:15:52;;;;;;;10.27;1.83;;;;;;;18.17;73.98;101585.19;5018474;28;20025;-75
2020/12/27 00:18:17;;;;;;;7.07;1.38;;;;;;;18.19;73.92;101574.47;5020352;28;20053;-75
2020/12/27 00:20:43;;;;;;;3.75;1.60;;;;;;;18.18;74.22;101572.72;5034399;28;20132;-75
2020/12/27 00:23:08;;;;;;;5.05;1.58;;;;;;;18.18;74.20;101573.56;5037423;28;20051;-74
2020/12/27 00:25:34;;;;;;;2.17;1.45;;;;;;;18.20;73.60;101579.81;5040086;28;20071;-74
2020/12/27 00:27:59;;;;;;;2.95;1.40;;;;;;;18.19;74.14;101577.13;5037472;28;20037;-74
2020/12/27 00:30:24;;;;;;;2.03;1.45;;;;;;;18.21;74.33;101578.03;5033332;28;20506;-74
2020/12/27 00:32:50;;;;;;;2.80;1.50;;;;;;;18.22;74.11;101578.03;5027399;28;20041;-73
2020/12/27 00:35:15;;;;;;;5.65;1.48;;;;;;;18.22;73.86;101575.38;5021045;28;20120;-74
2020/12/27 00:37:40;;;;;;;3.17;1.50;;;;;;;18.19;73.74;101567.34;5018022;28;20053;-73
2020/12/27 00:40:06;;;;;;;2.25;1.20;;;;;;;18.22;73.33;101571.81;5034828;28;20438;-73
2020/12/27 00:42:31;;;;;;;7.72;1.30;;;;;;;18.21;73.99;101572.69;5038232;28;20044;-74
2020/12/27 00:44:56;;;;;;;2.58;1.20;;;;;;;18.20;74.10;101577.16;5039334;28;20041;-73
2020/12/27 00:47:22;;;;;;;7.60;1.75;;;;;;;18.20;73.88;101579.81;5033553;28;20505;-74
2020/12/27 00:49:47;;;;;;;4.22;1.20;;;;;;;18.20;73.53;101578.94;5019419;28;20045;-74
2020/12/27 00:52:12;;;;;;;6.47;1.35;;;;;;;18.20;73.70;101587.84;5018637;28;20065;-73
2020/12/27 00:54:38;;;;;;;2.17;1.38;;;;;;;18.19;73.65;101594.06;5017757;28;20034;-73
2020/12/27 00:57:03;;;;;;;2.67;1.20;;;;;;;18.22;73.96;101593.19;5024299;28;20041;-74
2020/12/27 00:59:28;;;;;;;5.47;1.35;;;;;;;18.18;73.67;101602.13;5032081;28;20041;-73
2020/12/27 01:01:54;;;;;;;4.93;1.20;;;;;;;18.17;73.99;101595.88;5036285;28;20493;-73
2020/12/27 01:04:19;;;;;;;1.70;1.35;;;;;;;18.16;73.85;101588.75;5026782;28;20076;-74
2020/12/27 01:06:45;;;;;;;1.67;1.38;;;;;;;18.17;73.84;101587.88;5017461;28;20502;-75
2020/12/27 01:09:10;;;;;;;4.90;1.23;;;;;;;18.20;74.12;101587.84;5019766;28;20065;-74
2020/12/27 01:11:35;;;;;;;1.70;1.23;;;;;;;18.21;74.28;101572.69;5019087;28;20061;-74
2020/12/27 01:14:01;;;;;;;9.57;1.42;;;;;;;18.24;73.88;101572.69;5034791;28;20045;-75
2020/12/27 01:16:26;;;;;;;1.80;1.15;;;;;;;18.26;73.80;101568.22;5036533;28;20041;-74
2020/12/27 01:18:51;;;;;;;2.53;1.50;;;;;;;18.26;73.70;101577.13;5039584;28;20087;-74
2020/12/27 01:21:16;;;;;;;1.13;1.02;;;;;;;18.25;73.15;101582.47;5027035;28;20524;-74
2020/12/27 01:23:42;;;;;;;1.73;1.23;;;;;;;18.25;73.49;101577.13;5031535;28;20114;-74
2020/12/27 01:26:07;;;;;;;1.30;1.10;;;;;;;18.26;73.32;101573.56;5028241;28;20041;-74
2020/12/27 01:28:32;;;;;;;1.23;1.00;;;;;;;18.27;73.17;101570.88;5029877;28;20045;-74
2020/12/27 01:30:58;;;;;;;10.98;1.70;;;;;;;18.25;73.40;101567.31;5037378;28;20044;-74
2020/12/27 01:33:23;;;;;;;5.28;1.40;;;;;;;18.26;72.55;101565.53;5035604;28;20054;-74
2020/12/27 01:35:48;;;;;;;2.20;1.35;;;;;;;18.24;72.97;101564.69;5023369;28;20079;-74
2020/12/27 01:38:14;;;;;;;3.65;1.20;;;;;;;18.22;73.15;101562.00;5033824;28;20045;-74
2020/12/27 01:40:39;;;;;;;1.15;1.05;;;;;;;18.25;72.58;101564.66;5040992;28;20047;-74
2020/12/27 01:43:04;;;;;;;2.33;1.00;;;;;;;18.28;72.50;101563.75;5043109;28;20119;-74
2020/12/27 01:45:30;;;;;;;2.05;1.20;;;;;;;18.25;72.82;101561.97;5042985;28;20063;-74
2020/12/27 01:47:55;;;;;;;1.70;1.00;;;;;;;18.22;73.43;101563.78;5041758;28;20056;-75
2020/12/27 01:50:20;;;;;;;3.88;1.17;;;;;;;18.19;72.98;101556.66;5041142;28;20045;-75
2020/12/27 01:52:46;;;;;;;1.20;1.10;;;;;;;18.14;73.50;101558.44;5042716;28;20048;-75
2020/12/27 01:55:12;;;;;;;1.48;1.05;;;;;;;18.15;72.85;101557.56;5025656;28;20045;-75
2020/12/27 01:57:37;;;;;;;1.52;1.40;;;;;;;18.15;72.96;101560.25;5021350;28;20069;-75
2020/12/27 02:00:02;;;;;;;1.33;1.10;;;;;;;18.15;73.34;101554.91;5029743;28;20103;-75
2020/12/27 02:02:27;;;;;;;2.78;0.93;;;;;;;18.14;72.90;101562.91;5026180;28;20065;-75
2020/12/27 02:04:53;;;;;;;2.03;0.93;;;;;;;18.17;73.07;101563.81;5021081;28;20482;-76
2020/12/27 02:07:18;;;;;;;1.17;0.90;;;;;;;18.20;73.11;101562.88;5023906;28;20034;-76
2020/12/27 02:09:43;;;;;;;11.35;1.30;;;;;;;18.20;73.45;101561.09;5034006;28;20064;-74
2020/12/27 02:12:09;;;;;;;9.93;1.20;;;;;;;18.18;72.84;101556.69;5042479;28;20041;-75
2020/12/27 02:14:34;;;;;;;1.13;0.90;;;;;;;18.20;73.45;101561.09;5028971;28;20045;-75
2020/12/27 02:16:59;;;;;;;1.73;0.90;;;;;;;18.19;73.51;101548.63;5020909;28;20029;-75
2020/12/27 02:19:25;;;;;;;5.50;0.90;;;;;;;18.21;73.31;101549.53;5029629;28;20103;-75
2020/12/27 02:21:50;;;;;;;1.58;0.98;;;;;;;18.20;73.16;101545.06;5027475;28;20038;-75
2020/12/27 02:24:15;;;;;;;1.30;0.90;;;;;;;18.24;73.11;101544.19;5031348;28;20076;-76
2020/12/27 02:26:41;;;;;;;3.85;1.20;;;;;;;18.23;72.82;101549.53;5026285;28;20124;-76
2020/12/27 02:29:06;;;;;;;0.98;0.88;;;;;;;18.17;73.03;101547.78;5020865;28;20121;-76
2020/12/27 02:31:31;;;;;;;1.35;1.10;;;;;;;18.17;73.29;101553.13;5021944;28;20037;-77
2020/12/27 02:33:57;;;;;;;11.13;0.75;;;;;;;18.17;72.61;101555.78;5023922;28;22182;-76
2020/12/27 02:36:22;;;;;;;8.38;0.88;;;;;;;18.13;73.25;101556.66;5022637;28;20037;-75
2020/12/27 02:38:48;;;;;;;0.90;0.80;;;;;;;18.14;73.01;101553.09;5037136;28;20103;-75
2020/12/27 02:41:13;;;;;;;1.10;0.90;;;;;;;18.12;72.92;101556.66;5026933;28;20140;-75
2020/12/27 02:43:38;;;;;;;1.10;0.90;;;;;;;18.11;73.40;101550.47;5022527;28;20041;-75
2020/12/27 02:46:04;;;;;;;1.70;1.00;;;;;;;18.09;72.77;101546.00;5022840;28;20025;-74
2020/12/27 02:48:29;;;;;;;2.17;0.90;;;;;;;18.07;73.36;101542.44;5042347;28;20052;-75
2020/12/27 02:50:54;;;;;;;1.00;0.90;;;;;;;18.09;72.65;101543.34;5029362;28;20034;-75
2020/12/27 02:53:20;;;;;;;1.58;0.80;;;;;;;18.07;72.74;101546.00;5019999;28;20045;-75
2020/12/27 02:55:45;;;;;;;1.27;0.88;;;;;;;18.11;72.54;101541.56;5020277;28;20036;-75
2020/12/27 02:58:10;;;;;;;6.57;0.95;;;;;;;18.12;72.57;101543.31;5021603;28;20056;-74
2020/12/27 03:00:36;;;;;;;5.97;0.90;;;;;;;18.12;73.26;101538.84;5033695;28;20090;-74
2020/12/27 03:03:01;;;;;;;0.95;0.73;;;;;;;18.13;72.72;101542.41;5040964;28;20041;-74
2020/12/27 03:05:26;;;;;;;0.80;0.80;;;;;;;18.13;73.15;101542.41;5041811;28;20033;-74
2020/12/27 03:07:52;;;;;;;1.55;0.80;;;;;;;18.12;72.59;101535.28;5037664;28;20045;-74
2020/12/27 03:10:17;;;;;;;0.98;0.80;;;;;;;18.12;72.61;101535.28;5033665;28;20448;-75
2020/12/27 03:12:43;;;;;;;3.28;0.80;;;;;;;18.15;72.83;101535.28;5040833;28;20051;-76
2020/12/27 03:15:09;;;;;;;0.82;0.80;;;;;;;18.13;72.69;101537.97;5039065;28;20112;-75
2020/12/27 03:17:34;;;;;;;1.60;0.95;;;;;;;18.13;72.26;101543.31;5022129;28;20393;-75
2020/12/27 03:19:59;;;;;;;4.25;0.80;;;;;;;18.11;72.65;101541.56;5019642;28;20132;-74
2020/12/27 03:22:25;;;;;;;2.20;0.98;;;;;;;18.11;72.91;101544.22;5020057;28;20046;-74
2020/12/27 03:24:50;;;;;;;1.08;0.80;;;;;;;18.11;72.98;101544.22;5027597;28;20026;-74
2020/12/27 03:27:15;;;;;;;1.00;0.70;;;;;;;18.15;72.42;101548.66;5019475;28;20049;-74
2020/12/27 03:29:41;;;;;;;0.95;0.80;;;;;;;18.13;72.51;101554.00;5019236;28;20033;-74
2020/12/27 03:32:06;;;;;;;1.17;0.70;;;;;;;18.13;72.22;101545.97;5022094;28;20037;-74
2020/12/27 03:34:31;;;;;;;1.00;0.85;;;;;;;18.12;72.62;101546.88;5039638;28;20045;-73
2020/12/27 03:36:57;;;;;;;1.45;0.93;;;;;;;18.14;72.60;101547.75;5039323;28;20049;-74
2020/12/27 03:39:22;;;;;;;0.80;0.80;;;;;;;18.11;72.74;101550.47;5038071;28;20045;-75
2020/12/27 03:41:47;;;;;;;0.85;0.85;;;;;;;18.14;72.05;101545.09;5026077;28;20045;-74
2020/12/27 03:44:13;;;;;;;1.40;0.80;;;;;;;18.11;72.33;101541.56;5020598;28;20476;-74
2020/12/27 03:46:38;;;;;;;1.40;0.77;;;;;;;18.15;72.13;101544.19;5031248;28;20041;-74
2020/12/27 03:49:03;;;;;;;5.30;0.70;;;;;;;18.12;72.17;101545.97;5023046;28;20045;-74
2020/12/27 03:51:29;;;;;;;0.80;0.80;;;;;;;18.11;71.94;101553.13;5040812;28;20048;-73
2020/12/27 03:53:54;;;;;;;1.02;0.90;;;;;;;18.12;72.42;101562.00;5039965;28;20509;-74
2020/12/27 03:56:19;;;;;;;1.02;0.90;;;;;;;18.10;72.17;101562.03;5027241;28;20397;-74
2020/12/27 03:58:45;;;;;;;1.02;0.80;;;;;;;18.07;72.47;101567.38;5040315;28;20932;-75
2020/12/27 04:01:10;;;;;;;0.77;0.68;;;;;;;18.07;72.52;101578.06;5036358;28;20586;-74
2020/12/27 04:03:35;;;;;;;1.08;0.82;;;;;;;18.12;71.66;101568.25;5038430;28;20079;-74
2020/12/27 04:06:02;;;;;;;4.53;0.70;;;;;;;18.12;72.23;101578.03;5021821;28;20128;-74
2020/12/27 04:08:27;;;;;;;3.15;0.80;;;;;;;18.11;71.58;101579.84;5035568;28;20124;-74
2020/12/27 04:10:52;;;;;;;0.77;0.70;;;;;;;18.08;71.99;101573.63;5018557;28;20192;-74
2020/12/27 04:13:18;;;;;;;1.73;0.80;;;;;;;18.06;71.43;101570.03;5023372;28;20041;-74
2020/12/27 04:15:43;;;;;;;0.75;0.70;;;;;;;18.06;72.07;101576.28;5038264;28;20044;-74
2020/12/27 04:18:08;;;;;;;0.65;0.60;;;;;;;18.10;71.53;101585.19;5026831;28;20041;-74
2020/12/27 04:20:34;;;;;;;1.10;0.80;;;;;;;18.09;71.60;101580.75;5022550;28;20037;-74
2020/12/27 04:22:59;;;;;;;1.13;0.60;;;;;;;18.11;71.86;101569.16;5039915;28;20047;-74
2020/12/27 04:25:24;;;;;;;5.07;0.70;;;;;;;18.11;71.56;101560.25;5035311;28;20079;-74
2020/12/27 04:27:50;;;;;;;6.70;0.68;;;;;;;18.09;71.96;101575.41;5018560;28;20096;-75
2020/12/27 04:30:15;;;;;;;0.82;0.73;;;;;;;18.06;72.37;101565.59;5018190;28;20049;-76
2020/12/27 04:32:40;;;;;;;0.60;0.60;;;;;;;18.10;71.94;101562.03;5028665;28;20409;-76
2020/12/27 04:35:06;;;;;;;1.40;0.70;;;;;;;18.10;72.40;101559.38;5036838;28;20123;-76
2020/12/27 04:37:31;;;;;;;1.75;0.70;;;;;;;18.10;71.96;101561.16;5038247;28;25610;-76
2020/12/27 04:39:56;;;;;;;1.33;0.60;;;;;;;18.10;71.94;101563.81;5032053;28;20417;-76
2020/12/27 04:42:22;;;;;;;4.13;0.80;;;;;;;18.11;72.21;101563.81;5035775;28;20111;-76
2020/12/27 04:44:47;;;;;;;1.17;0.60;;;;;;;18.12;72.25;101576.25;5040143;28;20045;-76
2020/12/27 04:47:12;;;;;;;0.80;0.68;;;;;;;18.13;71.39;101583.41;5036758;28;20495;-76
2020/12/27 04:49:38;;;;;;;1.25;0.70;;;;;;;18.11;71.91;101568.28;5039585;28;20048;-75
2020/12/27 04:52:03;;;;;;;1.38;0.70;;;;;;;18.12;71.69;101562.91;5023624;28;20040;-74
2020/12/27 04:54:28;;;;;;;16.20;1.00;;;;;;;18.17;71.68;101569.16;5019523;28;20037;-74
2020/12/27 04:56:54;;;;;;;1.45;0.70;;;;;;;18.13;71.79;101563.78;5017763;28;20045;-74
2020/12/27 04:59:19;;;;;;;1.45;0.60;;;;;;;18.09;71.78;101572.72;5018420;28;20033;-75
2020/12/27 05:01:44;;;;;;;1.35;0.70;;;;;;;18.05;71.88;101579.84;5028260;28;20102;-74
2020/12/27 05:04:10;;;;;;;3.47;0.85;;;;;;;18.07;72.17;101572.72;5036850;28;20053;-74
2020/12/27 05:06:35;;;;;;;5.57;0.70;;;;;;;18.07;71.91;101577.19;5037369;28;20397;-74
2020/12/27 05:09:01;;;;;;;3.15;0.70;;;;;;;18.04;72.20;101577.19;5038143;28;20044;-74
2020/12/27 05:11:26;;;;;;;4.40;0.80;;;;;;;18.03;72.47;101586.09;5037056;28;20049;-73
2020/12/27 05:13:51;;;;;;;0.80;0.65;;;;;;;18.04;72.02;101586.09;5038646;28;20485;-73
2020/12/27 05:16:16;;;;;;;0.90;0.70;;;;;;;18.03;72.16;101587.00;5035190;28;20529;-74
2020/12/27 05:18:42;;;;;;;1.60;0.75;;;;;;;18.02;72.21;101587.00;5020145;28;20486;-74
2020/12/27 05:21:07;;;;;;;0.75;0.63;;;;;;;18.02;72.31;101590.56;5019348;28;20041;-73
2020/12/27 05:23:32;;;;;;;1.08;0.70;;;;;;;18.03;72.55;101576.31;5020573;28;20111;-74
2020/12/27 05:25:58;;;;;;;1.70;0.75;;;;;;;18.02;72.03;101574.53;5017091;28;20049;-72
2020/12/27 05:28:23;;;;;;;0.88;0.60;;;;;;;18.00;71.98;101570.94;5019898;28;20041;-73
2020/12/27 05:30:48;;;;;;;1.00;0.70;;;;;;;17.99;72.40;101571.84;5021181;28;20045;-73
2020/12/27 05:33:14;;;;;;;1.20;0.70;;;;;;;18.00;72.25;101578.06;5038053;28;20056;-73
2020/12/27 05:35:39;;;;;;;1.98;0.80;;;;;;;18.05;71.97;101577.16;5038637;28;20091;-74
2020/12/27 05:38:04;;;;;;;0.98;0.70;;;;;;;18.07;71.80;101579.84;5037219;28;20171;-73
2020/12/27 05:40:30;;;;;;;3.90;0.60;;;;;;;18.08;71.83;101581.63;5037018;28;20092;-75
2020/12/27 05:42:55;;;;;;;0.77;0.70;;;;;;;18.09;72.29;101583.41;5032300;28;20053;-74
2020/12/27 05:45:20;;;;;;;1.10;0.70;;;;;;;18.10;72.12;101585.19;5021109;28;20053;-74
2020/12/27 05:47:46;;;;;;;4.82;0.60;;;;;;;18.13;71.92;101587.84;5036900;28;20094;-74
2020/12/27 05:50:11;;;;;;;2.40;0.80;;;;;;;18.16;71.95;101585.19;5036833;28;20037;-74
2020/12/27 05:52:36;;;;;;;2.50;0.80;;;;;;;18.16;71.41;101586.06;5038021;28;20576;-73
2020/12/27 05:55:01;;;;;;;2.95;0.80;;;;;;;18.09;71.17;101581.63;5036603;28;20498;-74
2020/12/27 05:57:27;;;;;;;6.05;0.60;;;;;;;18.08;71.84;101578.97;5032815;28;20557;-73
2020/12/27 05:59:52;;;;;;;10.32;0.77;;;;;;;18.12;71.29;101578.94;5036546;28;20128;-73
2020/12/27 06:02:17;;;;;;;17.95;0.90;;;;;;;18.20;71.71;101566.44;5029561;28;20429;-73
2020/12/27 06:04:43;;;;;;;19.23;1.60;;;;;;;18.18;72.35;101562.88;5024397;28;20491;-74
2020/12/27 06:07:08;;;;;;;11.98;1.17;;;;;;;18.14;72.34;101566.47;5027722;28;20383;-74
2020/12/27 06:09:33;;;;;;;22.50;1.00;;;;;;;18.13;71.75;101578.06;5024776;28;20507;-74
2020/12/27 06:11:59;;;;;;;21.83;0.85;;;;;;;18.12;71.92;101564.69;5034560;28;20123;-74
2020/12/27 06:14:24;;;;;;;12.30;1.00;;;;;;;18.20;72.25;101574.47;5024928;28;20044;-74
2020/12/27 06:16:49;;;;;;;20.52;0.88;;;;;;;18.17;72.21;101576.28;5037837;28;20385;-74
2020/12/27 06:19:15;;;;;;;11.10;0.80;;;;;;;18.14;72.09;101570.94;5020176;28;20068;-74
2020/12/27 06:21:40;;;;;;;9.25;0.88;;;;;;;18.13;72.48;101578.06;5029861;28;20049;-73
2020/12/27 06:24:05;;;;;;;2.15;0.70;;;;;;;18.17;71.78;101573.59;5039054;28;20529;-73
2020/12/27 06:26:31;;;;;;;10.75;0.82;;;;;;;18.15;72.13;101591.41;5027142;28;20106;-73
2020/12/27 06:28:56;;;;;;;4.95;0.80;;;;;;;18.15;72.34;101589.63;5024478;28;20047;-74
2020/12/27 06:31:21;;;;;;;4.43;0.80;;;;;;;18.16;71.76;101601.22;5033411;28;20071;-74
2020/12/27 06:33:47;;;;;;;2.25;0.70;;;;;;;18.11;71.85;101592.31;5023686;28;20056;-74
2020/12/27 06:36:12;;;;;;;4.88;0.90;;;;;;;18.13;71.87;101591.41;5028671;28;20416;-73
2020/12/27 06:38:37;;;;;;;4.32;0.82;;;;;;;18.15;71.72;101586.06;5039640;28;20820;-74
2020/12/27 06:41:03;;;;;;;1.95;0.80;;;;;;;18.12;71.76;101592.31;5030490;28;20049;-74
2020/12/27 06:43:28;;;;;;;7.20;1.25;;;;;;;18.16;71.62;101599.44;5018708;28;20046;-74
2020/12/27 06:45:53;;;;;;;1.05;0.80;;;;;;;18.14;72.03;101601.22;5020429;28;20049;-75
2020/12/27 06:48:19;;;;;;;1.00;0.70;;;;;;;18.12;72.26;101603.00;5021614;28;20034;-74
2020/12/27 06:50:44;;;;;;;4.20;0.70;;;;;;;18.15;72.13;101592.31;5035155;28;20481;-74
2020/12/27 06:53:09;;;;;;;0.60;0.60;;;;;;;18.12;71.64;101570.91;5028671;28;20063;-72
2020/12/27 06:55:35;;;;;;;2.38;0.90;;;;;;;18.12;72.09;101562.00;5037313;28;20052;-74
2020/12/27 06:58:00;;;;;;;0.90;0.80;;;;;;;18.14;71.48;101571.81;5024154;28;20087;-74
2020/12/27 07:00:25;;;;;;;1.55;0.80;;;;;;;18.17;71.92;101576.28;5026063;28;20577;-72
2020/12/27 07:02:51;;;;;;;5.75;0.90;;;;;;;18.21;71.25;101570.03;5034678;28;20073;-71
2020/12/27 07:05:16;;;;;;;9.93;0.77;;;;;;;18.16;71.07;101583.41;5038914;28;20035;-72
2020/12/27 07:07:41;;;;;;;9.18;0.80;;;;;;;18.11;71.44;101576.28;5024162;28;20540;-72
2020/12/27 07:10:07;;;;;;;2.47;0.80;;;;;;;18.10;71.33;101583.41;5031307;28;20038;-72
2020/12/27 07:12:32;;;;;;;3.88;0.80;;;;;;;18.13;71.59;101583.41;5039804;28;20401;-71
2020/12/27 07:14:57;;;;;;;10.05;1.00;;;;;;;18.11;71.89;101574.50;5040769;28;20428;-71
2020/12/27 07:17:22;;;;;;;2.28;0.80;;;;;;;18.11;71.25;101563.81;5026088;28;20174;-72
2020/12/27 07:19:48;;;;;;;4.07;0.88;;;;;;;18.10;71.66;101562.03;5030146;28;20402;-73
2020/12/27 07:22:13;;;;;;;4.20;0.70;;;;;;;18.10;71.56;101559.38;5038398;28;20703;-74
2020/12/27 07:24:38;;;;;;;6.18;0.80;;;;;;;18.10;71.53;101571.84;5025512;28;20037;-73
2020/12/27 07:27:04;;;;;;;0.85;0.60;;;;;;;18.12;71.25;101580.72;5032893;28;20060;-73
2020/12/27 07:29:29;;;;;;;4.13;0.80;;;;;;;18.11;71.43;101581.63;5020532;28;20490;-74
2020/12/27 07:31:54;;;;;;;2.33;0.73;;;;;;;18.10;71.30;101583.41;5019002;28;20052;-74
2020/12/27 07:34:20;;;;;;;6.40;0.80;;;;;;;18.14;71.36;101587.84;5020796;28;20124;-74
2020/12/27 07:36:45;;;;;;;4.35;0.60;;;;;;;18.19;71.08;101587.81;5019782;28;20108;-73
2020/12/27 07:39:10;;;;;;;3.45;0.70;;;;;;;18.16;71.01;101591.41;5006929;28;20053;-74
2020/12/27 07:41:37;;;;;;;2.72;0.80;;;;;;;18.17;70.71;101597.66;5033725;28;20118;-74
2020/12/27 07:44:02;;;;;;;32.13;0.93;;;;;;;18.28;71.02;101594.06;5019689;28;20488;-73
2020/12/27 07:46:28;;;;;;;57.55;1.38;;;;;;;18.46;71.41;101593.09;5011728;28;20129;-74
2020/12/27 07:48:53;;;;;;;32.90;2.45;;;;;;;18.49;70.90;101613.59;5000884;28;20129;-74
2020/12/27 07:51:18;;;;;;;29.55;1.90;;;;;;;18.39;70.79;101612.72;5008519;28;20038;-73
2020/12/27 07:53:44;;;;;;;26.20;1.52;;;;;;;18.32;71.71;101613.63;5010585;28;20042;-77
2020/12/27 07:56:09;;;;;;;35.03;1.63;;;;;;;18.40;72.01;101624.31;5017576;28;20040;-76
2020/12/27 07:58:34;;;;;;;59.78;2.50;;;;;;;18.46;71.56;101624.31;5017142;28;24374;-74
2020/12/27 08:01:00;;;;;;;38.22;2.58;;;;;;;18.38;71.99;101608.28;5014175;28;20182;-73
2020/12/27 08:03:25;;;;;;;38.28;2.38;;;;;;;18.30;71.96;101610.09;5000114;28;20127;-75
2020/12/27 08:05:50;;;;;;;26.35;1.65;;;;;;;18.24;71.92;101612.78;5001008;28;20057;-74
2020/12/27 08:08:17;;;;;;;29.88;2.83;;;;;;;18.19;71.67;101609.22;5005408;28;20049;-75
2020/12/27 08:10:42;;;;;;;19.20;1.80;;;;;;;18.16;71.48;101614.59;5020158;28;20037;-73
2020/12/27 08:13:08;;;;;;;16.42;1.73;;;;;;;18.12;71.62;101619.03;5027441;28;20049;-74
2020/12/27 08:15:33;;;;;;;19.58;2.08;;;;;;;18.11;71.78;101617.28;5017297;28;20125;-73
2020/12/27 08:17:58;;;;;;;12.05;1.80;;;;;;;18.12;71.86;101610.13;5016916;28;20049;-75
2020/12/27 08:20:24;;;;;;;14.57;1.60;;;;;;;18.12;71.77;101613.69;5001437;28;20037;-75
2020/12/27 08:22:49;;;;;;;8.25;1.48;;;;;;;18.11;71.80;101614.59;4999777;28;20042;-74
2020/12/27 08:25:14;;;;;;;12.30;2.35;;;;;;;18.11;71.54;101619.06;4997801;28;20038;-75
2020/12/27 08:27:40;;;;;;;6.75;1.67;;;;;;;18.10;71.27;101623.50;5005518;28;20090;-75
2020/12/27 08:30:05;;;;;;;13.18;1.90;;;;;;;18.10;71.53;101623.50;5014925;28;20406;-76
2020/12/27 08:32:30;;;;;;;4.30;1.42;;;;;;;18.11;71.84;101621.72;5024669;28;20068;-74
2020/12/27 08:34:56;;;;;;;7.38;1.95;;;;;;;18.10;71.83;101625.28;5005324;28;20610;-73
2020/12/27 08:37:21;;;;;;;12.45;1.92;;;;;;;18.08;71.53;101613.69;5030972;28;20036;-74
2020/12/27 08:39:46;;;;;;;7.70;1.95;;;;;;;18.12;71.95;101607.44;5002841;28;20998;-74
2020/12/27 08:42:12;;;;;;;9.43;1.73;;;;;;;18.12;71.92;101605.66;5026333;28;20440;-74
2020/12/27 08:44:37;;;;;;;9.85;2.45;;;;;;;18.16;71.24;101606.56;5012200;28;20053;-76
2020/12/27 08:47:02;;;;;;;64.03;3.70;;;;;;;18.30;71.01;101602.97;5001189;28;20114;-74
2020/12/27 08:49:28;;;;;;;121.32;5.60;;;;;;;18.28;70.88;101596.72;5002842;28;20064;-74
2020/12/27 08:51:53;;;;;;;47.67;3.97;;;;;;;18.22;71.34;101595.84;5017386;28;20109;-73
2020/12/27 08:54:18;;;;;;;69.95;3.78;;;;;;;18.18;70.98;101599.44;5009194;28;20570;-74
2020/12/27 08:56:44;;;;;;;62.75;3.35;;;;;;;18.15;70.65;101584.28;5028644;28;20045;-74
2020/12/27 08:59:09;;;;;;;28.95;4.20;;;;;;;18.16;70.65;101583.41;5018289;28;20420;-74
2020/12/27 09:01:34;;;;;;;75.35;4.80;;;;;;;18.26;71.06;101590.50;5017303;28;20491;-80
2020/12/27 09:04:00;;;;;;;30.88;3.88;;;;;;;18.28;71.35;101594.06;5022347;28;20048;-76
2020/12/27 09:06:25;;;;;;;60.10;6.13;;;;;;;18.38;71.32;101600.25;5020134;28;20586;-73
2020/12/27 09:08:50;;;;;;;72.55;5.35;;;;;;;18.45;71.92;101596.66;5027128;28;20041;-75
2020/12/27 09:11:16;;;;;;;80.10;5.40;;;;;;;18.51;72.14;101593.09;5037448;28;20561;-75
2020/12/27 09:13:41;;;;;;;75.57;6.55;;;;;;;18.44;72.16;101599.38;4992633;28;20541;-74
2020/12/27 09:16:06;;;;;;;99.57;7.20;;;;;;;18.44;72.09;101594.03;4998622;28;20117;-76
2020/12/27 09:18:32;;;;;;;110.78;8.60;;;;;;;18.48;71.92;101590.44;4982579;28;20130;-76
2020/12/27 09:20:58;;;;;;;126.05;9.57;;;;;;;18.62;71.41;101567.25;4990272;28;20045;-74
2020/12/27 09:23:23;;;;;;;85.40;6.32;;;;;;;18.65;70.53;101585.94;4987729;28;20045;-73
2020/12/27 09:25:49;;;;;;;78.93;6.32;;;;;;;18.77;69.09;101577.88;4984224;28;20046;-73
2020/12/27 09:28:14;;;;;;;74.63;5.47;;;;;;;18.68;68.96;101568.09;4978650;28;20077;-75
2020/12/27 09:30:40;;;;;;;68.30;6.75;;;;;;;18.71;68.05;101564.50;4979830;28;20050;-74
2020/12/27 09:33:05;;;;;;;74.68;6.68;;;;;;;18.79;68.21;101560.00;4991178;28;20061;-75
2020/12/27 09:35:30;;;;;;;48.45;5.68;;;;;;;18.83;67.77;101555.53;4988034;28;20457;-73
2020/12/27 09:37:56;;;;;;;66.18;6.00;;;;;;;18.84;67.66;101555.50;4977609;28;20070;-74
2020/12/27 09:40:21;;;;;;;46.00;5.82;;;;;;;18.83;67.43;101539.50;4978557;28;20092;-76
2020/12/27 09:42:46;;;;;;;46.08;5.40;;;;;;;18.80;67.43;101540.38;4980885;28;20074;-77
2020/12/27 09:45:12;;;;;;;29.73;5.43;;;;;;;18.76;67.08;101514.56;4991756;28;20562;-74
2020/12/27 09:47:37;;;;;;;29.67;6.00;;;;;;;18.81;66.87;101498.47;4999493;28;20042;-77
2020/12/27 09:50:02;;;;;;;44.08;6.20;;;;;;;18.76;66.92;101517.22;4993778;28;20048;-80
2020/12/27 09:52:28;;;;;;;23.40;4.68;;;;;;;18.77;67.04;101518.13;4996446;28;20617;-76
2020/12/27 09:54:53;;;;;;;20.75;4.70;;;;;;;18.78;67.09;101509.16;4995877;28;20065;-78
2020/12/27 09:57:18;;;;;;;23.83;4.80;;;;;;;18.75;66.73;101511.88;4983710;28;20038;-80
2020/12/27 09:59:44;;;;;;;33.10;4.82;;;;;;;18.77;67.57;101513.66;4989852;28;20384;-79
2020/12/27 10:02:09;;;;;;;30.02;4.82;;;;;;;18.86;68.10;101508.25;5003801;28;20453;-81
2020/12/27 10:04:34;;;;;;;36.72;5.30;;;;;;;18.88;67.58;101513.59;5019117;28;20050;-75
2020/12/27 10:07:00;;;;;;;40.45;7.22;;;;;;;18.84;67.33;101519.88;5012562;28;20053;-80
2020/12/27 10:09:25;;;;;;;32.03;4.30;;;;;;;18.81;67.15;101501.16;5009699;28;20409;-79
2020/12/27 10:11:50;;;;;;;25.58;4.82;;;;;;;18.78;67.37;101493.13;5015909;28;20560;-78
2020/12/27 10:14:16;;;;;;;23.48;4.70;;;;;;;18.74;67.24;101488.69;5039144;28;20063;-83
2020/12/27 10:16:41;;;;;;;21.65;4.50;;;;;;;18.78;66.55;101479.75;5024772;28;20110;-85
2020/12/27 10:19:06;;;;;;;21.67;4.55;;;;;;;18.79;66.74;101469.03;5023699;28;20048;-75
2020/12/27 10:21:32;;;;;;;20.92;4.82;;;;;;;18.82;66.22;101458.34;5037017;28;20052;-76
2020/12/27 10:23:57;;;;;;;14.68;3.78;;;;;;;18.74;66.43;101456.59;5014607;28;20048;-83
2020/12/27 10:26:22;;;;;;;19.40;4.28;;;;;;;18.76;66.67;101457.50;5033083;28;20045;-79
2020/12/27 10:28:48;;;;;;;12.95;3.97;;;;;;;18.75;66.90;101456.59;5021197;28;20045;-82
2020/12/27 10:31:13;;;;;;;11.45;3.90;;;;;;;18.77;66.34;101452.13;5026620;28;20359;-77
2020/12/27 10:33:38;;;;;;;13.85;4.32;;;;;;;18.77;66.22;101460.16;5040864;28;20737;-76
2020/12/27 10:36:04;;;;;;;16.75;4.00;;;;;;;18.78;66.05;101447.63;5041717;28;20038;-77
2020/12/27 10:38:29;;;;;;;20.98;4.30;;;;;;;18.77;66.47;101452.13;5015989;28;20379;-77
2020/12/27 10:40:54;;;;;;;12.18;4.38;;;;;;;18.76;65.98;101455.72;5029859;28;20421;-76
2020/12/27 10:43:20;;;;;;;8.75;3.63;;;;;;;18.77;65.66;101451.25;5035594;28;20036;-76
2020/12/27 10:45:45;;;;;;;11.27;3.90;;;;;;;18.74;66.02;101469.97;5052199;28;20040;-75
2020/12/27 10:48:10;;;;;;;15.60;3.45;;;;;;;18.79;65.65;101466.38;5042128;28;20037;-77
2020/12/27 10:50:36;;;;;;;9.32;3.72;;;;;;;18.78;66.09;101471.72;5023997;28;20810;-76
2020/12/27 10:53:01;;;;;;;8.32;3.72;;;;;;;18.75;65.69;101469.97;5025568;28;20050;-76
2020/12/27 10:55:26;;;;;;;12.32;3.65;;;;;;;18.76;65.35;101460.16;5013199;28;20046;-74
2020/12/27 10:57:52;;;;;;;9.65;3.67;;;;;;;18.76;65.70;101466.41;4991362;28;20030;-73
2020/12/27 11:00:17;;;;;;;9.20;3.85;;;;;;;18.77;65.44;101459.28;4990319;28;20031;-74
2020/12/27 11:02:42;;;;;;;7.35;3.58;;;;;;;18.81;65.12;101453.00;5009213;28;20092;-74
2020/12/27 11:05:08;;;;;;;10.18;4.05;;;;;;;18.78;65.54;101451.22;5000944;28;20034;-75
2020/12/27 11:07:33;;;;;;;11.60;3.90;;;;;;;18.82;64.97;101449.41;5003535;28;20030;-71
2020/12/27 11:09:59;;;;;;;18.08;4.15;;;;;;;18.79;65.67;101444.97;5010197;28;20033;-71
2020/12/27 11:12:24;;;;;;;19.20;4.72;;;;;;;18.59;66.24;101437.06;5010489;28;20137;-71